Lynchburg, Virginia
Current Conditions -  °F | °C
As of 11:54 PM on Thursday 30 Oct 2014 (Local Time) from KLYH Reporting Station
Clear Clear  
Wind Chill: 40°   Ceiling: Unl
Heat Index: 40°   Visibility: 10mi
Dew Point: 35°   Wind: 0mph
Humidity: 83%   Direction: NA
Pressure: 30.05"   Gusts: NA
Location:  37.4°N, 79.15°W
Report Text: KLYH 310354Z AUTO 00000KT 10SM CLR 04/02 A3005 RMK AO2 SLP176 T00440017 $
Loading
Personal Weather Stations






























Interactive Weather Map
Tropical Storm Tracking
New forecast layout! Learn more

10-Day Weather Forecast

Advertisements
Track Severe Weather on mobile